createdAt,value
2022-12-04T00:00:23.703Z,15.66
2022-12-04T00:01:25.519Z,14.60
2022-12-04T00:02:27.416Z,10.86
2022-12-04T00:03:29.332Z,9.03
2022-12-04T00:04:31.266Z,12.37
2022-12-04T00:05:33.102Z,12.30
2022-12-04T00:06:34.903Z,16.63
2022-12-04T00:07:36.813Z,13.29
2022-12-04T00:08:38.563Z,12.19
2022-12-04T00:09:40.371Z,11.69
2022-12-04T00:10:42.197Z,8.24
2022-12-04T00:11:44.018Z,10.14
2022-12-04T00:12:45.853Z,9.30
2022-12-04T00:13:47.651Z,9.76
2022-12-04T00:15:23.914Z,9.81
2022-12-04T00:15:53.120Z,11.01
2022-12-04T00:16:55.125Z,8.49
2022-12-04T00:17:57.017Z,9.69
2022-12-04T00:18:58.888Z,12.11
2022-12-04T00:20:00.678Z,11.95
2022-12-04T00:21:02.484Z,9.55
2022-12-04T00:22:04.290Z,10.10
2022-12-04T00:23:06.143Z,13.77
2022-12-04T00:24:07.950Z,14.44
2022-12-04T00:25:09.775Z,44.44
2022-12-04T00:26:11.899Z,55.49
2022-12-04T00:27:13.697Z,40.43
2022-12-04T00:28:15.560Z,23.96
2022-12-04T00:29:17.394Z,17.72
2022-12-04T00:30:19.195Z,30.41
2022-12-04T00:31:21.058Z,35.83
2022-12-04T00:32:23.164Z,27.01
2022-12-04T00:33:25.013Z,18.86
2022-12-04T00:34:26.823Z,14.23
2022-12-04T00:35:28.649Z,9.93
2022-12-04T00:36:30.473Z,11.57
2022-12-04T00:37:32.293Z,12.24
2022-12-04T00:38:34.149Z,14.11
2022-12-04T00:39:35.952Z,16.52
2022-12-04T00:40:37.749Z,15.77
2022-12-04T00:41:39.549Z,14.15
2022-12-04T00:42:41.355Z,6.64
2022-12-04T00:43:43.187Z,8.49
2022-12-04T00:44:44.975Z,9.47
2022-12-04T00:45:46.873Z,8.15
2022-12-04T00:46:48.776Z,11.67
2022-12-04T00:47:50.603Z,10.14
2022-12-04T00:48:52.467Z,8.41
2022-12-04T00:49:54.556Z,9.70
2022-12-04T00:50:56.430Z,7.64
2022-12-04T00:51:58.232Z,6.82
2022-12-04T00:53:00.064Z,7.25
2022-12-04T00:54:01.923Z,7.44
2022-12-04T00:55:03.714Z,8.59
2022-12-04T00:56:05.632Z,8.42
2022-12-04T00:57:07.454Z,8.57
2022-12-04T00:58:09.278Z,7.92
2022-12-04T00:59:11.115Z,8.01
2022-12-04T01:00:13.026Z,8.98
2022-12-04T01:01:14.883Z,12.01
2022-12-04T01:02:16.639Z,7.88
2022-12-04T01:03:18.488Z,7.78
2022-12-04T01:04:20.298Z,7.91
2022-12-04T01:05:22.163Z,6.81
2022-12-04T01:06:23.956Z,10.79
2022-12-04T01:07:25.764Z,28.80
2022-12-04T01:08:27.569Z,29.81
2022-12-04T01:09:29.426Z,22.85
2022-12-04T01:10:31.336Z,19.03
2022-12-04T01:11:33.154Z,19.53
2022-12-04T01:12:34.937Z,19.00
2022-12-04T01:13:36.749Z,17.35
2022-12-04T01:14:38.586Z,17.99
2022-12-04T01:15:40.406Z,19.67
2022-12-04T01:16:42.231Z,20.36
2022-12-04T01:17:44.003Z,13.34
2022-12-04T01:18:45.783Z,15.89
2022-12-04T01:19:47.630Z,11.13
2022-12-04T01:20:49.692Z,9.97
2022-12-04T01:21:51.494Z,11.99
2022-12-04T01:22:53.395Z,12.67
2022-12-04T01:23:55.230Z,11.04
2022-12-04T01:24:57.093Z,9.10
2022-12-04T01:25:58.899Z,12.34
2022-12-04T01:27:01.105Z,9.67
2022-12-04T01:28:02.908Z,7.31
2022-12-04T01:29:04.703Z,13.18
2022-12-04T01:30:06.832Z,9.91
2022-12-04T01:31:08.629Z,10.70
2022-12-04T01:32:10.478Z,9.36
2022-12-04T01:33:12.238Z,11.25
2022-12-04T01:34:14.049Z,7.35
2022-12-04T01:35:15.895Z,8.47
2022-12-04T01:36:17.920Z,9.49
2022-12-04T01:37:19.735Z,7.33
2022-12-04T01:38:21.545Z,3.66
2022-12-04T01:39:23.357Z,8.72
2022-12-04T01:40:25.237Z,6.49
2022-12-04T01:41:27.035Z,7.44
2022-12-04T01:42:28.831Z,9.35
2022-12-04T01:43:30.605Z,5.99
2022-12-04T01:44:32.427Z,6.46
2022-12-04T01:45:34.315Z,8.28
2022-12-04T01:46:36.097Z,10.01
2022-12-04T01:47:37.903Z,6.25
2022-12-04T01:48:39.711Z,10.04
2022-12-04T01:49:41.527Z,4.29
2022-12-04T01:50:43.490Z,5.51
2022-12-04T01:51:45.389Z,6.07
2022-12-04T01:52:47.194Z,5.91
2022-12-04T01:53:48.978Z,7.75
2022-12-04T01:54:50.786Z,7.57
2022-12-04T01:55:52.635Z,7.19
2022-12-04T01:56:54.414Z,7.72
2022-12-04T01:57:56.243Z,6.17
2022-12-04T01:58:58.071Z,8.01
2022-12-04T01:59:59.991Z,10.26
2022-12-04T02:01:07.876Z,9.79
2022-12-04T02:02:05.608Z,8.00
2022-12-04T02:03:07.601Z,11.03
2022-12-04T02:04:09.459Z,14.39
2022-12-04T02:05:11.246Z,11.21
2022-12-04T02:06:13.117Z,14.62
2022-12-04T02:07:14.993Z,16.19
2022-12-04T02:08:16.832Z,12.77
2022-12-04T02:09:24.628Z,17.69
2022-12-04T02:10:22.216Z,13.73
2022-12-04T02:11:24.084Z,23.87
2022-12-04T02:12:25.918Z,44.67
2022-12-04T02:13:27.728Z,69.15
2022-12-04T02:14:29.637Z,36.19
2022-12-04T02:15:31.443Z,25.59
2022-12-04T02:16:33.311Z,18.39
2022-12-04T02:17:35.102Z,18.63
2022-12-04T02:18:36.898Z,17.19
2022-12-04T02:19:38.702Z,12.87
2022-12-04T02:20:40.621Z,14.03
2022-12-04T02:21:42.488Z,13.31
2022-12-04T02:22:44.363Z,12.06
2022-12-04T02:23:46.178Z,10.02
2022-12-04T02:24:50.237Z,11.33
2022-12-04T02:25:51.603Z,9.09
2022-12-04T02:26:53.775Z,8.80
2022-12-04T02:27:55.567Z,10.17
2022-12-04T02:28:57.350Z,6.01
2022-12-04T02:29:59.169Z,6.45
2022-12-04T02:31:01.016Z,7.84
2022-12-04T02:32:02.932Z,8.05
2022-12-04T02:33:04.747Z,6.52
2022-12-04T02:34:06.561Z,5.83
2022-12-04T02:35:08.375Z,8.17
2022-12-04T02:36:10.194Z,7.47
2022-12-04T02:37:12.053Z,8.37
2022-12-04T02:38:13.864Z,11.17
2022-12-04T02:39:15.674Z,10.33
2022-12-04T02:40:17.490Z,8.59
2022-12-04T02:41:19.302Z,8.96
2022-12-04T02:42:21.804Z,6.91
2022-12-04T02:43:23.610Z,8.82
2022-12-04T02:44:25.402Z,9.09
2022-12-04T02:45:27.220Z,5.81
2022-12-04T02:46:29.094Z,6.43
2022-12-04T02:47:30.973Z,5.81
2022-12-04T02:48:32.776Z,9.42
2022-12-04T02:49:34.573Z,10.51
2022-12-04T02:50:36.482Z,9.11
2022-12-04T02:51:38.277Z,6.71
2022-12-04T02:52:40.122Z,10.59
2022-12-04T02:53:41.984Z,8.96
2022-12-04T02:54:43.797Z,5.90
2022-12-04T02:55:45.612Z,8.36
2022-12-04T02:56:47.433Z,8.05
2022-12-04T02:57:49.279Z,6.67
2022-12-04T02:58:51.080Z,6.77
2022-12-04T02:59:53.309Z,6.99
2022-12-04T03:00:55.679Z,5.93
2022-12-04T03:01:57.566Z,7.09
2022-12-04T03:02:59.564Z,9.43
2022-12-04T03:04:01.477Z,6.63
2022-12-04T03:05:03.282Z,9.28
2022-12-04T03:06:05.193Z,9.71
2022-12-04T03:07:07.048Z,6.77
2022-12-04T03:08:08.959Z,6.49
2022-12-04T03:09:10.776Z,4.68
2022-12-04T03:10:13.288Z,5.47
2022-12-04T03:11:15.087Z,7.65
2022-12-04T03:12:16.898Z,7.48
2022-12-04T03:13:18.766Z,8.61
2022-12-04T03:14:20.584Z,6.52
2022-12-04T03:15:22.398Z,4.72
2022-12-04T03:16:24.319Z,5.71
2022-12-04T03:17:26.109Z,5.45
2022-12-04T03:18:27.952Z,9.00
2022-12-04T03:19:29.769Z,5.85
2022-12-04T03:20:31.684Z,4.41
2022-12-04T03:21:33.472Z,5.85
2022-12-04T03:22:35.283Z,5.95
2022-12-04T03:23:37.136Z,6.64
2022-12-04T03:24:38.945Z,9.15
2022-12-04T03:25:40.759Z,6.21
2022-12-04T03:26:42.974Z,4.75
2022-12-04T03:27:44.773Z,4.99
2022-12-04T03:28:46.617Z,7.90
2022-12-04T03:29:48.430Z,3.73
2022-12-04T03:30:50.360Z,6.94
2022-12-04T03:31:52.147Z,7.15
2022-12-04T03:32:53.958Z,7.24
2022-12-04T03:33:55.802Z,7.55
2022-12-04T03:34:57.619Z,8.33
2022-12-04T03:35:59.441Z,16.19
2022-12-04T03:37:01.235Z,18.79
2022-12-04T03:38:03.045Z,10.32
2022-12-04T03:39:04.906Z,10.67
2022-12-04T03:40:06.841Z,7.91
2022-12-04T03:41:08.645Z,6.47
2022-12-04T03:42:10.443Z,10.33
2022-12-04T03:43:12.262Z,11.42
2022-12-04T03:44:14.121Z,13.31
2022-12-04T03:45:15.918Z,8.86
2022-12-04T03:46:17.831Z,9.71
2022-12-04T03:47:19.642Z,7.38
2022-12-04T03:48:23.494Z,10.58
2022-12-04T03:49:25.114Z,9.03
2022-12-04T03:50:27.021Z,6.98
2022-12-04T03:51:28.815Z,7.31
2022-12-04T03:52:30.622Z,8.25
2022-12-04T03:53:32.430Z,7.42
2022-12-04T03:54:34.265Z,9.32
2022-12-04T03:55:36.139Z,7.24
2022-12-04T03:56:37.942Z,7.01
2022-12-04T03:57:39.755Z,8.81
2022-12-04T03:58:41.575Z,7.15
2022-12-04T03:59:43.429Z,6.06
2022-12-04T04:00:45.228Z,7.77
2022-12-04T04:01:47.059Z,6.36
2022-12-04T04:02:48.990Z,6.43
2022-12-04T04:03:50.755Z,6.20
2022-12-04T04:04:52.599Z,7.55
2022-12-04T04:05:54.406Z,5.53
2022-12-04T04:06:56.223Z,8.35
2022-12-04T04:07:58.064Z,5.49
2022-12-04T04:08:59.852Z,6.21
2022-12-04T04:10:01.805Z,6.83
2022-12-04T04:11:03.618Z,7.04
2022-12-04T04:12:05.426Z,4.99
2022-12-04T04:14:08.982Z,11.52
2022-12-04T04:15:10.834Z,4.84
2022-12-04T04:16:12.675Z,7.11
2022-12-04T04:17:14.449Z,7.77
2022-12-04T04:18:16.260Z,6.87
2022-12-04T04:19:18.075Z,10.41
2022-12-04T04:20:19.915Z,6.69
2022-12-04T04:21:21.722Z,7.45
2022-12-04T04:22:23.500Z,10.28
2022-12-04T04:23:25.324Z,5.32
2022-12-04T04:24:27.155Z,7.86
2022-12-04T04:25:28.993Z,4.04
2022-12-04T04:26:30.932Z,6.34
2022-12-04T04:27:32.748Z,5.89
2022-12-04T04:28:34.583Z,5.76
2022-12-04T04:29:36.349Z,4.69
2022-12-04T04:30:38.209Z,5.68
2022-12-04T04:31:40.074Z,5.11
2022-12-04T04:32:41.924Z,4.93
2022-12-04T04:33:43.716Z,4.79
2022-12-04T04:34:45.508Z,5.41
2022-12-04T04:35:47.365Z,5.88
2022-12-04T04:36:49.169Z,5.96
2022-12-04T04:37:50.987Z,10.83
2022-12-04T04:38:52.775Z,17.31
2022-12-04T04:39:54.865Z,23.79
2022-12-04T04:40:56.931Z,25.23
2022-12-04T04:41:58.802Z,13.59
2022-12-04T04:43:01.737Z,11.00
2022-12-04T04:44:03.576Z,12.59
2022-12-04T04:45:05.352Z,12.68
2022-12-04T04:46:08.316Z,17.42
2022-12-04T04:47:10.067Z,13.46
2022-12-04T04:48:11.873Z,5.94
2022-12-04T04:49:13.694Z,7.66
2022-12-04T04:50:15.601Z,6.77
2022-12-04T04:51:17.822Z,5.47
2022-12-04T04:52:19.634Z,3.92
2022-12-04T04:53:21.441Z,7.17
2022-12-04T04:54:23.235Z,7.14
2022-12-04T04:55:25.081Z,5.23
2022-12-04T04:56:26.937Z,7.11
2022-12-04T04:57:28.750Z,4.73
2022-12-04T04:58:30.553Z,6.70
2022-12-04T04:59:32.362Z,3.95
2022-12-04T05:00:34.172Z,6.13
2022-12-04T05:01:36.079Z,6.24
2022-12-04T05:02:37.902Z,8.05
2022-12-04T05:03:39.747Z,7.11
2022-12-04T05:04:41.548Z,6.32
2022-12-04T05:05:43.355Z,6.44
2022-12-04T05:06:45.303Z,5.51
2022-12-04T05:07:47.165Z,6.59
2022-12-04T05:08:49.031Z,8.50
2022-12-04T05:09:50.842Z,5.81
2022-12-04T05:10:52.652Z,6.47
2022-12-04T05:11:54.493Z,7.76
2022-12-04T05:12:56.381Z,7.57
2022-12-04T05:13:58.211Z,8.59
2022-12-04T05:15:00.042Z,7.06
2022-12-04T05:16:01.893Z,8.21
2022-12-04T05:17:07.753Z,6.18
2022-12-04T05:18:07.450Z,7.14
2022-12-04T05:19:09.385Z,7.46
2022-12-04T05:20:11.297Z,8.29
2022-12-04T05:21:13.098Z,4.95
2022-12-04T05:22:14.945Z,4.85
2022-12-04T05:23:16.755Z,4.45
2022-12-04T05:24:18.549Z,4.76
2022-12-04T05:25:20.358Z,6.43
2022-12-04T05:26:22.163Z,3.51
2022-12-04T05:27:24.022Z,5.65
2022-12-04T05:28:25.851Z,3.91
2022-12-04T05:29:30.467Z,5.78
2022-12-04T05:30:31.276Z,3.98
2022-12-04T05:31:33.161Z,6.01
2022-12-04T05:32:35.177Z,8.55
2022-12-04T05:33:37.168Z,6.79
2022-12-04T05:34:38.940Z,5.30
2022-12-04T05:35:40.760Z,6.38
2022-12-04T05:36:42.598Z,6.09
2022-12-04T05:37:44.438Z,6.12
2022-12-04T05:38:46.264Z,4.47
2022-12-04T05:39:48.055Z,3.18
2022-12-04T05:40:49.868Z,10.29
2022-12-04T05:41:51.680Z,15.03
2022-12-04T05:42:53.526Z,17.75
2022-12-04T05:43:55.457Z,13.62
2022-12-04T05:44:57.266Z,19.09
2022-12-04T05:45:59.082Z,17.63
2022-12-04T05:47:01.245Z,27.28
2022-12-04T05:48:03.032Z,12.31
2022-12-04T05:49:04.840Z,19.44
2022-12-04T05:50:06.849Z,21.50
2022-12-04T05:51:08.651Z,18.68
2022-12-04T05:52:10.475Z,16.24
2022-12-04T05:53:12.323Z,11.15
2022-12-04T05:54:14.127Z,14.45
2022-12-04T05:55:15.940Z,7.76
2022-12-04T05:56:18.063Z,12.45
2022-12-04T05:57:19.877Z,6.82
2022-12-04T05:58:21.706Z,8.29
2022-12-04T05:59:23.537Z,8.35
2022-12-04T06:00:25.336Z,8.19
2022-12-04T06:01:27.160Z,10.85
2022-12-04T06:02:29.040Z,6.87
2022-12-04T06:03:30.979Z,8.22
2022-12-04T06:04:32.820Z,7.71
2022-12-04T06:05:34.622Z,8.18
2022-12-04T06:06:36.533Z,8.42
2022-12-04T06:07:38.396Z,7.66
2022-12-04T06:08:40.195Z,6.83
2022-12-04T06:09:42.011Z,7.57
2022-12-04T06:10:43.808Z,9.42
2022-12-04T06:11:45.610Z,10.21
2022-12-04T06:12:47.419Z,9.17
2022-12-04T06:13:49.269Z,6.79
2022-12-04T06:14:51.544Z,8.04
2022-12-04T06:15:53.345Z,7.37
2022-12-04T06:16:55.328Z,10.23
2022-12-04T06:17:57.169Z,5.07
2022-12-04T06:18:59.014Z,4.40
2022-12-04T06:20:01.002Z,4.23
2022-12-04T06:21:03.073Z,7.89
2022-12-04T06:22:04.854Z,6.62
2022-12-04T06:23:06.871Z,9.43
2022-12-04T06:24:08.719Z,7.27
2022-12-04T06:25:10.520Z,14.74
2022-12-04T06:26:12.711Z,19.34
2022-12-04T06:27:29.916Z,11.80
2022-12-04T06:28:18.150Z,8.05
2022-12-04T06:29:20.024Z,7.96
2022-12-04T06:30:22.005Z,7.71
2022-12-04T06:31:23.875Z,6.13
2022-12-04T06:32:25.669Z,6.32
2022-12-04T06:33:27.475Z,6.04
2022-12-04T06:34:29.330Z,8.20
2022-12-04T06:35:31.148Z,8.55
2022-12-04T06:36:33.063Z,5.17
2022-12-04T06:37:34.854Z,5.16
2022-12-04T06:38:36.661Z,6.11
2022-12-04T06:39:38.508Z,6.17
2022-12-04T06:40:40.423Z,4.51
2022-12-04T06:41:42.264Z,5.91
2022-12-04T06:42:44.090Z,9.73
2022-12-04T06:43:46.711Z,3.93
2022-12-04T06:44:48.663Z,8.59
2022-12-04T06:45:50.558Z,8.39
2022-12-04T06:46:54.645Z,6.92
2022-12-04T06:47:55.902Z,5.47
2022-12-04T06:48:57.709Z,8.71
2022-12-04T06:49:59.576Z,3.13
2022-12-04T06:51:01.354Z,6.35
2022-12-04T06:52:03.163Z,5.60
2022-12-04T06:53:08.435Z,6.85
2022-12-04T06:54:08.815Z,7.18
2022-12-04T06:55:10.670Z,8.59
2022-12-04T06:56:12.613Z,5.85
2022-12-04T06:57:14.409Z,4.20
2022-12-04T06:58:16.190Z,6.36
2022-12-04T07:00:40.522Z,8.90
2022-12-04T07:01:42.444Z,7.72
2022-12-04T07:02:44.319Z,9.91
2022-12-04T07:03:51.085Z,7.97
2022-12-04T07:04:49.778Z,8.46
2022-12-04T07:05:51.642Z,7.74
2022-12-04T07:06:53.461Z,11.00
2022-12-04T07:07:55.311Z,6.81
2022-12-04T07:08:57.081Z,3.01
2022-12-04T07:09:58.950Z,7.54
2022-12-04T07:11:00.751Z,6.31
2022-12-04T07:12:02.549Z,10.63
2022-12-04T07:13:04.360Z,11.81
2022-12-04T07:14:06.432Z,8.59
2022-12-04T07:15:08.392Z,8.01
2022-12-04T07:16:10.623Z,4.73
2022-12-04T07:17:12.626Z,8.93
2022-12-04T07:18:14.497Z,12.54
2022-12-04T07:19:16.416Z,8.59
2022-12-04T07:20:18.221Z,6.27
2022-12-04T07:21:20.068Z,8.85
2022-12-04T07:22:21.877Z,11.03
2022-12-04T07:23:23.670Z,7.45
2022-12-04T07:24:25.472Z,7.53
2022-12-04T07:25:27.265Z,6.71
2022-12-04T07:26:29.219Z,6.21
2022-12-04T07:27:31.044Z,8.84
2022-12-04T07:28:32.851Z,5.44
2022-12-04T07:29:34.664Z,4.95
2022-12-04T07:30:36.490Z,6.90
2022-12-04T07:31:38.467Z,5.87
2022-12-04T07:32:40.307Z,7.64
2022-12-04T07:33:42.109Z,6.67
2022-12-04T07:34:43.925Z,5.70
2022-12-04T07:35:45.751Z,4.51
2022-12-04T07:36:47.669Z,4.94
2022-12-04T07:37:49.477Z,7.38
2022-12-04T07:38:51.304Z,7.43
2022-12-04T07:39:53.480Z,9.11
2022-12-04T07:40:55.615Z,11.17
2022-12-04T07:41:57.519Z,13.29
2022-12-04T07:42:59.385Z,12.59
2022-12-04T07:44:01.198Z,10.51
2022-12-04T07:45:03.000Z,9.64
2022-12-04T07:46:04.886Z,8.67
2022-12-04T07:47:06.690Z,9.35
2022-12-04T07:48:08.536Z,8.49
2022-12-04T07:49:10.335Z,7.43
2022-12-04T07:50:12.235Z,9.23
2022-12-04T07:51:14.049Z,13.37
2022-12-04T07:52:15.903Z,9.14
2022-12-04T07:53:17.743Z,8.46
2022-12-04T07:54:19.569Z,7.29
2022-12-04T07:55:23.281Z,10.81
2022-12-04T07:56:25.010Z,12.03
2022-12-04T07:57:26.886Z,11.28
2022-12-04T07:58:28.695Z,10.77
2022-12-04T07:59:30.531Z,9.52
2022-12-04T08:00:32.424Z,8.34
2022-12-04T08:01:34.294Z,7.92
2022-12-04T08:02:36.174Z,7.39
2022-12-04T08:03:42.092Z,6.44
2022-12-04T08:04:41.881Z,8.24
2022-12-04T08:05:43.668Z,6.72
2022-12-04T08:06:45.480Z,7.41
2022-12-04T08:07:47.338Z,6.61
2022-12-04T08:08:49.109Z,9.18
2022-12-04T08:09:50.952Z,8.96
2022-12-04T08:10:52.753Z,9.51
2022-12-04T08:11:54.551Z,5.71
2022-12-04T08:12:56.383Z,7.61
2022-12-04T08:13:58.187Z,4.98
2022-12-04T08:15:00.002Z,8.81
2022-12-04T08:16:01.797Z,8.92
2022-12-04T08:17:03.653Z,7.96
2022-12-04T08:18:05.576Z,7.27
2022-12-04T08:19:07.473Z,5.71
2022-12-04T08:20:09.374Z,6.26
2022-12-04T08:21:11.177Z,7.79
2022-12-04T08:22:12.998Z,8.79
2022-12-04T08:23:14.845Z,7.83
2022-12-04T08:24:16.640Z,6.91
2022-12-04T08:25:18.449Z,6.07
2022-12-04T08:26:20.252Z,4.27
2022-12-04T08:27:22.086Z,6.67
2022-12-04T08:28:23.933Z,6.85
2022-12-04T08:29:25.751Z,7.32
2022-12-04T08:30:27.650Z,8.53
2022-12-04T08:31:29.567Z,7.37
2022-12-04T08:32:31.417Z,7.09
2022-12-04T08:33:33.279Z,8.27
2022-12-04T08:34:35.108Z,7.45
2022-12-04T08:35:36.903Z,10.93
2022-12-04T08:36:38.717Z,9.31
2022-12-04T08:37:40.517Z,8.69
2022-12-04T08:38:42.377Z,9.07
2022-12-04T08:39:44.183Z,8.59
2022-12-04T08:40:46.111Z,7.25
2022-12-04T08:41:51.081Z,6.38
2022-12-04T08:42:51.546Z,11.24
2022-12-04T08:43:53.401Z,9.17
2022-12-04T08:44:55.253Z,8.57
2022-12-04T08:45:57.081Z,7.98
2022-12-04T08:46:59.778Z,13.69
2022-12-04T08:48:02.125Z,6.95
2022-12-04T08:49:04.002Z,13.05
2022-12-04T08:50:06.047Z,8.83
2022-12-04T08:51:07.903Z,7.31
2022-12-04T08:52:09.784Z,9.12
2022-12-04T08:53:11.597Z,5.96
2022-12-04T08:54:13.462Z,9.19
2022-12-04T08:55:15.283Z,8.83
2022-12-04T08:56:17.101Z,31.35
2022-12-04T08:57:18.930Z,24.64
2022-12-04T08:58:20.746Z,16.09
2022-12-04T08:59:22.611Z,11.43
2022-12-04T09:00:24.454Z,8.78
2022-12-04T09:01:26.302Z,10.75
2022-12-04T09:02:28.157Z,10.20
2022-12-04T09:03:31.159Z,8.83
2022-12-04T09:04:33.147Z,6.99
2022-12-04T09:05:35.032Z,8.51
2022-12-04T09:06:36.936Z,5.95
2022-12-04T09:07:38.869Z,7.50
2022-12-04T09:08:40.669Z,8.76
2022-12-04T09:09:48.070Z,11.79
2022-12-04T09:10:46.242Z,10.35
2022-12-04T09:11:48.043Z,10.03
2022-12-04T09:12:49.852Z,5.35
2022-12-04T09:13:51.679Z,5.89
2022-12-04T09:14:53.531Z,9.40
2022-12-04T09:15:55.372Z,8.64
2022-12-04T09:16:57.440Z,12.94
2022-12-04T09:17:59.256Z,6.46
2022-12-04T09:19:01.096Z,8.11
2022-12-04T09:20:03.491Z,12.18
2022-12-04T09:21:05.535Z,8.22
2022-12-04T09:22:07.344Z,7.87
2022-12-04T09:23:09.162Z,7.28
2022-12-04T09:24:10.956Z,5.66
2022-12-04T09:25:12.796Z,3.78
2022-12-04T09:26:14.601Z,6.28
2022-12-04T09:27:16.419Z,5.07
2022-12-04T09:28:18.240Z,8.32
2022-12-04T09:29:20.031Z,8.01
2022-12-04T09:30:21.883Z,5.15
2022-12-04T09:31:23.786Z,4.71
2022-12-04T09:32:25.694Z,6.34
2022-12-04T09:33:27.617Z,6.55
2022-12-04T09:34:29.365Z,7.64
2022-12-04T09:35:31.215Z,9.75
2022-12-04T09:36:33.364Z,6.74
2022-12-04T09:37:35.162Z,7.78
2022-12-04T09:38:36.990Z,12.65
2022-12-04T09:39:41.295Z,10.24
2022-12-04T09:40:43.217Z,4.49
2022-12-04T09:41:45.026Z,6.33
2022-12-04T09:42:46.831Z,9.10
2022-12-04T09:43:48.632Z,11.21
2022-12-04T09:44:50.427Z,8.47
2022-12-04T09:45:52.291Z,8.24
2022-12-04T09:46:54.755Z,9.78
2022-12-04T09:47:56.614Z,8.22
2022-12-04T09:48:58.411Z,7.88
2022-12-04T09:50:00.235Z,7.37
2022-12-04T09:51:02.195Z,13.41
2022-12-04T09:52:04.131Z,18.22
2022-12-04T09:53:05.932Z,14.04
2022-12-04T09:54:07.733Z,11.75
2022-12-04T09:55:09.536Z,7.61
2022-12-04T09:56:11.495Z,9.92
2022-12-04T09:57:13.337Z,12.70
2022-12-04T09:58:15.107Z,10.81
2022-12-04T09:59:16.927Z,11.80
2022-12-04T10:00:18.825Z,10.14
2022-12-04T10:01:20.680Z,7.27
2022-12-04T10:02:22.639Z,8.34
2022-12-04T10:03:24.726Z,9.53
2022-12-04T10:04:26.898Z,9.01
2022-12-04T10:05:28.697Z,6.92
2022-12-04T10:06:30.649Z,6.37
2022-12-04T10:07:32.908Z,10.82
2022-12-04T10:08:34.721Z,12.48
2022-12-04T10:09:36.545Z,14.62
2022-12-04T10:10:38.592Z,14.62
2022-12-04T10:11:40.407Z,15.93
2022-12-04T10:12:42.225Z,11.87
2022-12-04T10:13:44.052Z,11.04
2022-12-04T10:14:45.853Z,10.25
2022-12-04T10:15:47.715Z,11.98
2022-12-04T10:16:49.734Z,9.31
2022-12-04T10:17:51.546Z,9.72
2022-12-04T10:18:53.360Z,9.92
2022-12-04T10:19:55.404Z,21.95
2022-12-04T10:20:57.421Z,15.47
2022-12-04T10:21:59.280Z,8.35
2022-12-04T10:23:01.224Z,7.41
2022-12-04T10:24:03.051Z,9.39
2022-12-04T10:25:04.880Z,11.84
2022-12-04T10:26:07.201Z,10.12
2022-12-04T10:27:09.060Z,10.38
2022-12-04T10:28:10.875Z,16.44
2022-12-04T10:29:12.677Z,12.83
2022-12-04T10:30:14.493Z,11.93
2022-12-04T10:31:16.368Z,13.14
2022-12-04T10:32:18.282Z,10.70
2022-12-04T10:33:21.192Z,9.89
2022-12-04T10:34:23.013Z,12.50
2022-12-04T10:35:24.848Z,12.76
2022-12-04T10:36:26.653Z,14.34
2022-12-04T10:37:28.537Z,7.29
2022-12-04T10:38:30.406Z,8.46
2022-12-04T10:39:32.227Z,9.79
2022-12-04T10:40:34.254Z,8.21
2022-12-04T10:41:36.056Z,9.29
2022-12-04T10:42:37.915Z,13.25
2022-12-04T10:43:39.719Z,14.42
2022-12-04T10:44:41.529Z,11.56
2022-12-04T10:45:43.367Z,14.51
2022-12-04T10:46:46.639Z,13.29
2022-12-04T10:47:48.786Z,10.65
2022-12-04T10:48:50.618Z,15.31
2022-12-04T10:49:52.453Z,9.45
2022-12-04T10:50:54.387Z,14.01
2022-12-04T10:51:56.249Z,11.61
2022-12-04T10:52:58.109Z,14.94
2022-12-04T10:53:59.942Z,15.54
2022-12-04T10:55:01.752Z,18.60
2022-12-04T10:56:03.693Z,10.01
2022-12-04T10:57:05.544Z,9.50
2022-12-04T10:58:07.385Z,11.81
2022-12-04T10:59:09.277Z,8.00
2022-12-04T11:00:11.291Z,11.05
2022-12-04T11:01:13.089Z,12.31
2022-12-04T11:02:15.049Z,15.29
2022-12-04T11:03:16.979Z,16.64
2022-12-04T11:04:18.855Z,27.13
2022-12-04T11:05:20.770Z,11.71
2022-12-04T11:06:22.570Z,13.33
2022-12-04T11:07:24.388Z,17.67
2022-12-04T11:08:26.464Z,16.09
2022-12-04T11:09:28.291Z,11.85
2022-12-04T11:10:30.188Z,15.99
2022-12-04T11:11:32.082Z,18.16
2022-12-04T11:12:33.940Z,12.67
2022-12-04T11:13:35.817Z,15.67
2022-12-04T11:14:37.662Z,14.83
2022-12-04T11:15:39.438Z,12.82
2022-12-04T11:16:41.330Z,13.33
2022-12-04T11:17:43.228Z,11.03
2022-12-04T11:18:45.097Z,13.45
2022-12-04T11:19:46.929Z,12.08
2022-12-04T11:20:48.776Z,12.44
2022-12-04T11:21:50.594Z,15.68
2022-12-04T11:22:52.495Z,13.63
2022-12-04T11:23:54.304Z,10.03
2022-12-04T11:24:56.112Z,10.02
2022-12-04T11:26:03.812Z,11.43
2022-12-04T11:27:01.641Z,11.12
2022-12-04T11:28:03.472Z,10.91
2022-12-04T11:29:05.323Z,11.96
2022-12-04T11:30:07.350Z,10.93
2022-12-04T11:31:09.242Z,16.23
2022-12-04T11:32:11.134Z,13.61
2022-12-04T11:33:12.925Z,21.39
2022-12-04T11:34:14.802Z,21.87
2022-12-04T11:35:16.681Z,23.30
2022-12-04T11:36:18.673Z,16.45
2022-12-04T11:37:20.595Z,13.46
2022-12-04T11:38:22.372Z,13.52
2022-12-04T11:39:24.243Z,9.47
2022-12-04T11:40:26.237Z,8.16
2022-12-04T11:41:28.060Z,14.42
2022-12-04T11:42:29.886Z,13.67
2022-12-04T11:43:31.726Z,11.35
2022-12-04T11:44:33.549Z,10.05
2022-12-04T11:45:35.344Z,13.19
2022-12-04T11:46:37.686Z,17.22
2022-12-04T11:47:39.512Z,16.96
2022-12-04T11:48:41.420Z,14.41
2022-12-04T11:49:43.988Z,14.02
2022-12-04T11:50:46.400Z,22.66
2022-12-04T11:51:48.229Z,22.53
2022-12-04T11:52:50.072Z,31.41
2022-12-04T11:53:51.912Z,22.26
2022-12-04T11:54:53.809Z,14.79
2022-12-04T11:55:55.655Z,11.91
2022-12-04T11:56:57.586Z,12.03
2022-12-04T11:57:59.523Z,21.30
2022-12-04T11:59:01.351Z,23.80
2022-12-04T12:00:03.189Z,15.65
2022-12-04T12:01:05.085Z,21.29
2022-12-04T12:02:07.054Z,17.54
2022-12-04T12:03:08.939Z,14.61
2022-12-04T12:04:10.798Z,19.19
2022-12-04T12:05:12.676Z,16.08
2022-12-04T12:06:14.462Z,20.47
2022-12-04T12:07:16.283Z,20.51
2022-12-04T12:08:18.109Z,26.21
2022-12-04T12:09:19.931Z,20.77
2022-12-04T12:10:21.834Z,21.36
2022-12-04T12:11:23.680Z,33.40
2022-12-04T12:12:25.458Z,18.64
2022-12-04T12:13:27.340Z,32.33
2022-12-04T12:14:29.246Z,22.31
2022-12-04T12:15:31.066Z,17.22
2022-12-04T12:16:32.913Z,17.70
2022-12-04T12:17:34.704Z,16.51
2022-12-04T12:18:36.552Z,14.20
2022-12-04T12:19:38.357Z,13.84
2022-12-04T12:20:40.230Z,13.31
2022-12-04T12:21:42.035Z,15.90
2022-12-04T12:22:43.847Z,16.73
2022-12-04T12:23:45.649Z,16.32
2022-12-04T12:24:53.291Z,14.57
2022-12-04T12:25:52.517Z,10.26
2022-12-04T12:26:54.462Z,12.54
2022-12-04T12:27:56.328Z,8.80
2022-12-04T12:28:58.139Z,11.97
2022-12-04T12:29:59.969Z,9.85
2022-12-04T12:31:05.761Z,14.75
2022-12-04T12:32:05.540Z,10.88
2022-12-04T12:33:07.535Z,9.74
2022-12-04T12:34:09.359Z,13.93
2022-12-04T12:35:11.175Z,13.04
2022-12-04T12:36:13.219Z,10.14
2022-12-04T12:37:15.045Z,11.59
2022-12-04T12:38:16.869Z,10.75
2022-12-04T12:39:18.690Z,10.97
2022-12-04T12:40:20.891Z,11.20
2022-12-04T12:41:22.767Z,14.00
2022-12-04T12:42:24.623Z,10.70
2022-12-04T12:43:26.452Z,13.33
2022-12-04T12:44:28.257Z,14.10
2022-12-04T12:45:30.201Z,20.12
2022-12-04T12:46:32.210Z,18.73
2022-12-04T12:47:33.955Z,21.98
2022-12-04T12:48:35.802Z,19.23
2022-12-04T12:49:38.054Z,20.15
2022-12-04T12:50:39.870Z,18.93
2022-12-04T12:51:41.730Z,23.96
2022-12-04T12:52:43.552Z,15.21
2022-12-04T12:53:45.388Z,18.31
2022-12-04T12:54:47.186Z,20.64
2022-12-04T12:55:48.995Z,21.73
2022-12-04T12:56:51.074Z,21.05
2022-12-04T12:57:53.087Z,13.68
2022-12-04T12:58:54.939Z,15.19
2022-12-04T12:59:57.101Z,13.26
2022-12-04T13:00:59.095Z,15.98
2022-12-04T13:02:01.463Z,15.50
2022-12-04T13:03:03.597Z,11.90
2022-12-04T13:04:05.408Z,12.26
2022-12-04T13:05:07.214Z,18.63
2022-12-04T13:06:09.140Z,11.36
2022-12-04T13:07:10.990Z,16.83
2022-12-04T13:08:12.847Z,15.21
2022-12-04T13:09:14.631Z,17.43
2022-12-04T13:10:16.427Z,13.89
2022-12-04T13:11:18.253Z,16.49
2022-12-04T13:12:20.109Z,26.12
2022-12-04T13:13:22.141Z,17.93
2022-12-04T13:14:23.986Z,12.50
2022-12-04T13:15:25.815Z,13.00
2022-12-04T13:16:27.649Z,14.42
2022-12-04T13:17:29.461Z,20.44
2022-12-04T13:18:31.298Z,31.59
2022-12-04T13:19:33.118Z,22.65
2022-12-04T13:20:35.014Z,22.32
2022-12-04T13:21:36.857Z,17.82
2022-12-04T13:22:38.725Z,16.35
2022-12-04T13:23:40.535Z,29.46
2022-12-04T13:24:42.359Z,21.64
2022-12-04T13:25:44.284Z,15.82
2022-12-04T13:26:49.450Z,19.02
2022-12-04T13:27:49.722Z,23.32
2022-12-04T13:28:51.550Z,26.00
2022-12-04T13:29:53.780Z,28.81
2022-12-04T13:30:55.964Z,21.43
2022-12-04T13:31:57.899Z,19.59
2022-12-04T13:32:59.873Z,25.83
2022-12-04T13:34:01.684Z,30.13